Hlavní strana
METAR-TAF:

METAR-TAF

Letiště :

Orsk, Rusko

zeměpisná šířka: 51-04-18N, zeměpisná délka: 058-35-48E, výška: 277 m

Aktuální stav počasí

Zpráva byla vytvořena před 1 hodinou a 2 minutami, v 22:00 UTC
Západoseverozápadní vítr 2 kt
Teplota -11°C
Vlhkost vzduchu 56%
Tlak 1040 hPa
Viditelnost 10 km a více
Žádná oblačnost pod 1500 m, nevyskytují se cumulonimby.

METAR: UWOR 152200Z 30001MPS CAVOK M11/M18 Q1040 R25/810055 NOSIG RMK QFE756/1008

Čas: 04:02 (23:02 UTC)

Předpověď počasí

Zpráva byla vytvořena před 3 hodinami a 2 minutami, v 20:00 UTC
Předpověď platná od 15 v 21 UTC do 16 v 06 UTC
Západní vítr 6 kt
Viditelnost 10 km a více
Polojasno ve výšce 4000 ft
Dočasný
od 15 v 21 UTC do 16 v 06 UTC
vítr z různých směrů 2 kt
Viditelnost: 3100 m
Oblačno až skoro zataženo ve výšce 1100 ft
kouřmo

TAF: UWOR 152000Z 1521/1606 27003MPS 9999 SCT040 TEMPO 1521/1606 VRB01MPS 3100 BR BKN011

Stav a předpovědi počasí z více než 4 000 letišť (zprávy METAR a TAF).

Červené a žluté tečky na mapě představují dostupné meteorologické stanice.

Když kurzor umístíte na tečku, zobrazí se název stanice.

Pak kliknutím zobrazíte stav a předpověď počasí.

Chcete-li změnit mapu, kliknutím na zelené tlačítko se znaménkem +mapu přiblížíte, kliknutím na zelené tlačítko se znaménkem – mapu oddálíte a kliknutím na zelené šipky přejdete na sousední mapy.


METAR-TAF: